Time;durP1;ratioP1;P1;durP2;ratioP2;P2;SDS_P1;SDS_P2;PMS_P1;PMS_P2;Temp;Humidity;BMP_temperature;BMP_pressure;BME280_temperature;BME280_humidity;BME280_pressure;Samples;Min_cycle;Max_cycle;Signal;HPM_P1;HPM_P2
2022/07/07 00:01:46;;;;;;;16.13;4.03;;;17.60;99.90;;;;;;4880123;29;20107;-67
2022/07/07 00:04:12;;;;;;;16.50;4.30;;;;;;;;;;4896701;29;20075;-66
2022/07/07 00:06:38;;;;;;;15.43;3.47;;;;;;;;;;4880086;29;20059;-66
2022/07/07 00:09:05;;;;;;;14.63;3.40;;;;;;;;;;4880279;29;20545;-66
2022/07/07 00:11:31;;;;;;;8.43;3.55;;;;;;;;;;4909090;29;20040;-66
2022/07/07 00:13:58;;;;;;;19.13;3.75;;;;;;;;;;4901916;29;20049;-66
2022/07/07 00:16:24;;;;;;;12.90;4.07;;;;;;;;;;4881054;29;20051;-66
2022/07/07 00:18:50;;;;;;;17.00;3.45;;;;;;;;;;4881405;29;20505;-68
2022/07/07 00:21:16;;;;;;;9.00;3.90;;;;;;;;;;4881386;29;20052;-68
2022/07/07 00:23:42;;;;;;;20.98;4.35;;;;;;;;;;4898146;29;20055;-68
2022/07/07 00:26:08;;;;;;;16.40;4.43;;;;;;;;;;4897877;29;20092;-68
2022/07/07 00:28:35;;;;;;;17.35;4.90;;;;;;;;;;4880908;29;20044;-68
2022/07/07 00:31:01;;;;;;;17.27;4.80;;;;;;;;;;4897490;29;20079;-69
2022/07/07 00:33:27;;;;;;;12.45;4.40;;;;;;;;;;4881009;29;20047;-69
2022/07/07 00:35:53;;;;;;;10.68;4.65;;;;;;;;;;4897762;29;20139;-69
2022/07/07 00:38:20;;;;;;;20.88;4.97;;;;;;;;;;4897969;29;20052;-69
2022/07/07 00:40:53;;;;;;;26.05;4.53;;;16.60;99.90;;;;;;4880919;29;20413;-69
2022/07/07 00:43:19;;;;;;;17.13;4.80;;;;;;;;;;4898084;29;20067;-69
2022/07/07 00:45:49;;;;;;;13.23;4.43;;;16.70;99.90;;;;;;4880972;29;20053;-69
2022/07/07 00:48:19;;;;;;;15.40;4.75;;;16.50;99.90;;;;;;4880769;29;20051;-69
2022/07/07 00:50:46;;;;;;;22.83;4.95;;;;;;;;;;4880997;29;20044;-68
2022/07/07 00:53:12;;;;;;;20.58;4.75;;;;;;;;;;4897678;29;20181;-69
2022/07/07 00:55:39;;;;;;;17.10;4.70;;;16.70;99.90;;;;;;4880955;29;20048;-69
2022/07/07 00:58:05;;;;;;;24.98;4.40;;;;;;;;;;4897490;29;20500;-69
2022/07/07 01:00:32;;;;;;;14.43;3.75;;;;;;;;;;4897684;29;20396;-69
2022/07/07 01:02:58;;;;;;;17.77;4.43;;;;;;;;;;4880705;29;20087;-69
2022/07/07 01:05:24;;;;;;;25.48;4.97;;;;;;;;;;4880584;29;20466;-69
2022/07/07 01:07:52;;;;;;;17.70;4.75;;;16.50;99.90;;;;;;4880410;29;20497;-69
2022/07/07 01:10:18;;;;;;;24.27;4.82;;;;;;;;;;4897570;29;20056;-69
2022/07/07 01:12:44;;;;;;;21.13;4.72;;;;;;;;;;4897719;29;20079;-69
2022/07/07 01:15:12;;;;;;;21.55;4.95;;;16.60;99.90;;;;;;4883755;29;20071;-69
2022/07/07 01:17:38;;;;;;;20.85;4.72;;;;;;;;;;4900983;29;20059;-69
2022/07/07 01:20:06;;;;;;;23.63;4.85;;;16.30;99.90;;;;;;4884217;29;20051;-69
2022/07/07 01:22:34;;;;;;;28.20;5.32;;;;;;;;;;4868545;29;20040;-69
2022/07/07 01:25:00;;;;;;;28.80;5.85;;;;;;;;;;4900838;29;20041;-69
2022/07/07 01:27:26;;;;;;;22.90;4.68;;;;;;;;;;4900936;29;20047;-69
2022/07/07 01:29:54;;;;;;;19.25;4.53;;;;;;;;;;4900673;29;20131;-69
2022/07/07 01:32:21;;;;;;;25.80;4.68;;;16.90;99.90;;;;;;4899678;29;20497;-65
2022/07/07 01:34:48;;;;;;;18.70;4.43;;;;;;;;;;4899777;29;20167;-66
2022/07/07 01:37:14;;;;;;;16.35;4.07;;;;;;;;;;4899503;29;20068;-66
2022/07/07 01:39:41;;;;;;;15.65;3.55;;;;;;;;;;4882813;29;20048;-66
2022/07/07 01:42:07;;;;;;;13.90;3.08;;;;;;;;;;4899362;29;20047;-66
2022/07/07 01:44:35;;;;;;;24.20;3.03;;;16.60;99.90;;;;;;4883029;29;20124;-66
2022/07/07 01:47:01;;;;;;;15.98;3.35;;;;;;;;;;4882621;29;20511;-66
2022/07/07 01:49:28;;;;;;;17.75;3.30;;;;;;;;;;4899161;29;20067;-66
2022/07/07 01:51:54;;;;;;;15.05;2.95;;;;;;;;;;4899142;29;20097;-66
2022/07/07 01:54:20;;;;;;;14.98;3.17;;;;;;;;;;4899737;29;20036;-66
2022/07/07 01:56:47;;;;;;;14.73;2.72;;;;;;;;;;4882585;29;20044;-66
2022/07/07 01:59:13;;;;;;;19.00;3.03;;;16.60;99.90;;;;;;4899223;29;20565;-65
2022/07/07 02:01:39;;;;;;;13.82;3.15;;;;;;;;;;4882432;29;20049;-66
2022/07/07 02:04:05;;;;;;;20.42;3.53;;;;;;;;;;4882200;29;20108;-65
2022/07/07 02:06:32;;;;;;;18.48;3.22;;;16.40;99.90;;;;;;4899446;29;20378;-66
2022/07/07 02:08:58;;;;;;;15.95;3.13;;;;;;;;;;4882220;29;20052;-65
2022/07/07 02:11:25;;;;;;;18.25;3.60;;;;;;;;;;4879987;29;20047;-65
2022/07/07 02:13:52;;;;;;;19.38;3.47;;;;;;;;;;4913185;29;20080;-66
2022/07/07 02:16:20;;;;;;;16.42;3.45;;;16.20;99.90;;;;;;4882204;29;20377;-66
2022/07/07 02:18:48;;;;;;;23.25;3.70;;;16.60;99.90;;;;;;4898461;29;20033;-66
2022/07/07 02:21:15;;;;;;;28.38;3.90;;;16.50;99.90;;;;;;4882188;29;20397;-66
2022/07/07 02:23:43;;;;;;;23.42;3.88;;;;;;;;;;4882191;29;20526;-66
2022/07/07 02:26:09;;;;;;;29.17;5.05;;;;;;;;;;4881427;29;20049;-66
2022/07/07 02:28:35;;;;;;;27.88;4.38;;;;;;;;;;4881975;29;20043;-66
2022/07/07 02:31:01;;;;;;;21.83;3.83;;;;;;;;;;4898801;29;20045;-66
2022/07/07 02:33:28;;;;;;;23.15;3.53;;;;;;;;;;4882040;29;20051;-66
2022/07/07 02:35:54;;;;;;;30.77;3.33;;;;;;;;;;4899020;29;20041;-66
2022/07/07 02:38:22;;;;;;;22.90;3.53;;;16.40;99.90;;;;;;4881534;29;20127;-66
2022/07/07 02:40:48;;;;;;;15.27;2.72;;;;;;;;;;4881691;29;20044;-66
2022/07/07 02:43:14;;;;;;;22.23;3.30;;;;;;;;;;4898268;29;20044;-66
2022/07/07 02:45:42;;;;;;;21.08;3.28;;;17.00;99.90;;;;;;4898707;29;20466;-66
2022/07/07 02:48:09;;;;;;;23.30;3.75;;;16.40;99.90;;;;;;4895990;29;20079;-66
2022/07/07 02:50:35;;;;;;;28.50;3.20;;;;;;;;;;4882041;29;20147;-66
2022/07/07 02:53:01;;;;;;;19.20;2.75;;;;;;;;;;4881574;29;20097;-66
2022/07/07 02:55:27;;;;;;;18.48;2.75;;;;;;;;;;4898412;29;20086;-66
2022/07/07 02:57:53;;;;;;;25.83;2.47;;;;;;;;;;4881366;29;20047;-66
2022/07/07 03:00:19;;;;;;;15.05;2.25;;;;;;;;;;4881734;29;20088;-66
2022/07/07 03:02:45;;;;;;;21.98;2.78;;;;;;;;;;4881098;29;20059;-66
2022/07/07 03:05:12;;;;;;;16.42;1.90;;;;;;;;;;4898159;29;20124;-66
2022/07/07 03:07:38;;;;;;;27.38;3.15;;;16.10;99.90;;;;;;4880888;29;20071;-66
2022/07/07 03:10:05;;;;;;;20.20;2.40;;;;;;;;;;4866064;29;20068;-66
2022/07/07 03:12:31;;;;;;;19.90;2.63;;;;;;;;;;4880965;29;20493;-65
2022/07/07 03:14:57;;;;;;;17.23;2.08;;;;;;;;;;4881165;29;20036;-66
2022/07/07 03:17:23;;;;;;;18.80;2.00;;;;;;;;;;4880595;29;20081;-66
2022/07/07 03:19:49;;;;;;;16.27;2.45;;;;;;;;;;4897805;29;20481;-66
2022/07/07 03:22:15;;;;;;;21.55;2.28;;;;;;;;;;4881105;29;20040;-66
2022/07/07 03:24:41;;;;;;;9.10;2.45;;;;;;;;;;4897858;29;20040;-66
2022/07/07 03:27:08;;;;;;;13.52;1.90;;;;;;;;;;4880749;29;20059;-66
2022/07/07 03:29:34;;;;;;;19.65;2.13;;;;;;;;;;4897361;29;20131;-66
2022/07/07 03:32:00;;;;;;;14.23;2.50;;;;;;;;;;4897520;29;20047;-66
2022/07/07 03:34:26;;;;;;;15.43;2.47;;;;;;;;;;4897974;29;20037;-66
2022/07/07 03:36:52;;;;;;;14.23;1.92;;;;;;;;;;4880497;29;20048;-66
2022/07/07 03:39:18;;;;;;;11.90;1.75;;;;;;;;;;4880577;29;20096;-66
2022/07/07 03:41:44;;;;;;;17.33;2.33;;;;;;;;;;4897509;29;20055;-66
2022/07/07 03:44:10;;;;;;;18.88;2.10;;;;;;;;;;4897611;29;20438;-66
2022/07/07 03:46:36;;;;;;;21.42;2.47;;;;;;;;;;4897776;29;20076;-66
2022/07/07 03:49:03;;;;;;;12.02;1.73;;;;;;;;;;4880670;29;20044;-66
2022/07/07 03:51:29;;;;;;;12.32;2.03;;;;;;;;;;4880594;29;20040;-65
2022/07/07 03:53:55;;;;;;;12.65;1.75;;;;;;;;;;4897283;29;20374;-65
2022/07/07 03:56:21;;;;;;;8.55;1.40;;;;;;;;;;4880434;29;20116;-66
2022/07/07 03:58:47;;;;;;;3.42;0.85;;;;;;;;;;4880439;29;20052;-66
2022/07/07 04:01:13;;;;;;;4.55;1.00;;;;;;;;;;4880736;29;20466;-65
2022/07/07 04:03:39;;;;;;;3.88;1.05;;;;;;;;;;4880236;29;20451;-66
2022/07/07 04:06:06;;;;;;;13.07;1.30;;;;;;;;;;4895266;29;20048;-66
2022/07/07 04:08:32;;;;;;;4.10;1.33;;;;;;;;;;4896958;29;20109;-65
2022/07/07 04:10:58;;;;;;;5.05;1.00;;;;;;;;;;4864964;29;20087;-66
2022/07/07 04:13:24;;;;;;;9.23;1.63;;;;;;;;;;4880178;29;20032;-66
2022/07/07 04:15:50;;;;;;;6.10;1.38;;;;;;;;;;4897483;29;20044;-66
2022/07/07 04:18:16;;;;;;;12.48;1.50;;;;;;;;;;4896890;29;20055;-65
2022/07/07 04:20:43;;;;;;;9.73;1.55;;;;;;;;;;4865053;29;20100;-66
2022/07/07 04:23:09;;;;;;;16.85;2.25;;;;;;;;;;4890170;29;20033;-65
2022/07/07 04:25:35;;;;;;;18.05;2.30;;;;;;;;;;4880230;29;20045;-65
2022/07/07 04:28:01;;;;;;;17.00;2.90;;;;;;;;;;4880151;29;20504;-65
2022/07/07 04:30:27;;;;;;;18.10;2.80;;;;;;;;;;4896596;29;20064;-66
2022/07/07 04:32:53;;;;;;;25.90;3.00;;;;;;;;;;4895017;29;20100;-65
2022/07/07 04:35:19;;;;;;;19.58;3.10;;;;;;;;;;4877756;29;20485;-65
2022/07/07 04:37:45;;;;;;;29.67;3.28;;;;;;;;;;4879843;29;20044;-65
2022/07/07 04:40:11;;;;;;;18.63;3.50;;;16.20;99.90;;;;;;4880419;29;20429;-65
2022/07/07 04:42:37;;;;;;;31.13;3.90;;;;;;;;;;4896505;29;20056;-65
2022/07/07 04:45:04;;;;;;;19.60;2.80;;;;;;;;;;4896738;29;20041;-66
2022/07/07 04:47:30;;;;;;;24.10;2.95;;;;;;;;;;4896807;29;20087;-66
2022/07/07 04:49:56;;;;;;;23.45;3.10;;;;;;;;;;4889274;29;20044;-65
2022/07/07 04:52:22;;;;;;;15.45;2.50;;;;;;;;;;4883556;29;20049;-65
2022/07/07 04:54:48;;;;;;;19.08;2.85;;;;;;;;;;4900307;29;20036;-66
2022/07/07 04:57:14;;;;;;;18.52;2.80;;;;;;;;;;4914111;29;20032;-65
2022/07/07 04:59:40;;;;;;;17.30;2.50;;;;;;;;;;4890478;29;20040;-65
2022/07/07 05:02:07;;;;;;;23.85;2.60;;;;;;;;;;4900018;29;20132;-66
2022/07/07 05:04:33;;;;;;;20.98;2.70;;;;;;;;;;4883172;29;20469;-65
2022/07/07 05:06:59;;;;;;;23.38;3.47;;;;;;;;;;4882736;29;20172;-65
2022/07/07 05:09:25;;;;;;;24.30;3.25;;;;;;;;;;4882271;29;20040;-65
2022/07/07 05:11:51;;;;;;;23.33;2.83;;;;;;;;;;4882209;29;20477;-65
2022/07/07 05:14:17;;;;;;;16.23;2.80;;;;;;;;;;4882594;29;20048;-65
2022/07/07 05:16:43;;;;;;;19.10;2.70;;;;;;;;;;4881552;29;20100;-73
2022/07/07 05:19:09;;;;;;;18.95;2.70;;;;;;;;;;4865316;29;20401;-66
2022/07/07 05:21:36;;;;;;;19.35;2.33;;;;;;;;;;4882003;29;20138;-66
2022/07/07 05:24:02;;;;;;;15.05;2.47;;;;;;;;;;4913184;29;20040;-66
2022/07/07 05:26:28;;;;;;;13.02;2.47;;;;;;;;;;4881816;29;20108;-65
2022/07/07 05:28:54;;;;;;;16.20;2.28;;;;;;;;;;4879413;29;20071;-66
2022/07/07 05:31:20;;;;;;;10.35;2.17;;;;;;;;;;4879247;29;20362;-66
2022/07/07 05:33:46;;;;;;;18.85;2.30;;;;;;;;;;4896127;29;20386;-67
2022/07/07 05:36:12;;;;;;;10.52;1.75;;;;;;;;;;4896358;29;20404;-66
2022/07/07 05:38:38;;;;;;;9.18;2.00;;;;;;;;;;4879167;29;20131;-70
2022/07/07 05:41:04;;;;;;;10.50;1.95;;;;;;;;;;4879712;29;20056;-66
2022/07/07 05:43:30;;;;;;;16.52;2.13;;;;;;;;;;4901941;29;20033;-66
2022/07/07 05:45:56;;;;;;;16.40;2.10;;;;;;;;;;4879169;29;20237;-66
2022/07/07 05:48:22;;;;;;;13.27;1.75;;;;;;;;;;4886299;29;20059;-65
2022/07/07 05:50:49;;;;;;;15.00;2.30;;;;;;;;;;4895932;29;20052;-66
2022/07/07 05:53:15;;;;;;;15.10;2.15;;;;;;;;;;4869415;29;20045;-65
2022/07/07 05:55:41;;;;;;;23.30;2.58;;;;;;;;;;4896440;29;21960;-66
2022/07/07 05:58:07;;;;;;;18.73;2.00;;;;;;;;;;4879842;29;20405;-65
2022/07/07 06:00:34;;;;;;;13.95;2.00;;;;;;;;;;4894854;29;20181;-65
2022/07/07 06:03:00;;;;;;;9.65;2.13;;;;;;;;;;4893211;29;20052;-72
2022/07/07 06:05:26;;;;;;;10.43;1.83;;;;;;;;;;4879261;29;20045;-65
2022/07/07 06:07:53;;;;;;;14.30;2.33;;;;;;;;;;4880504;29;20084;-66
2022/07/07 06:10:19;;;;;;;7.50;1.30;;;;;;;;;;4879039;29;20517;-66
2022/07/07 06:12:46;;;;;;;11.50;1.80;;;;;;;;;;4895547;29;20044;-65
2022/07/07 06:15:12;;;;;;;7.30;1.77;;;;;;;;;;4879916;29;20446;-66
2022/07/07 06:17:38;;;;;;;13.73;2.72;;;;;;;;;;4878739;29;20052;-66
2022/07/07 06:20:04;;;;;;;15.20;2.08;;;;;;;;;;4895251;29;20049;-65
2022/07/07 06:22:30;;;;;;;12.15;1.67;;;;;;;;;;4895279;29;20143;-66
2022/07/07 06:24:56;;;;;;;14.63;1.70;;;;;;;;;;4904982;29;20040;-66
2022/07/07 06:27:22;;;;;;;9.93;1.88;;;;;;;;;;4888058;29;20080;-66
2022/07/07 06:29:48;;;;;;;19.45;2.33;;;;;;;;;;4894898;29;20056;-66
2022/07/07 06:32:15;;;;;;;11.48;1.63;;;;;;;;;;4878441;29;20039;-66
2022/07/07 06:34:42;;;;;;;11.38;1.63;;;;;;;;;;4893844;29;20068;-66
2022/07/07 06:37:08;;;;;;;9.77;1.58;;;;;;;;;;4894655;29;20097;-66
2022/07/07 06:39:34;;;;;;;17.00;2.33;;;;;;;;;;4876801;29;20323;-66
2022/07/07 06:42:00;;;;;;;14.60;2.03;;;;;;;;;;4877576;29;20080;-66
2022/07/07 06:44:32;;;;;;;14.70;2.47;;;;;;;;;;4893650;29;20375;-66
2022/07/07 06:46:59;;;;;;;18.63;2.25;;;;;;;;;;4878026;29;20135;-66
2022/07/07 06:49:28;;;;;;;19.05;3.10;;;;;;;;;;4877882;29;20052;-66
2022/07/07 06:51:55;;;;;;;19.38;2.92;;;16.40;99.90;;;;;;4878567;29;20119;-66
2022/07/07 06:54:22;;;;;;;15.32;3.00;;;;;;;;;;4895102;29;20036;-66
2022/07/07 06:56:48;;;;;;;21.13;2.58;;;;;;;;;;4894788;29;20196;-66
2022/07/07 06:59:14;;;;;;;15.43;2.53;;;;;;;;;;4902203;29;20055;-67
2022/07/07 07:01:40;;;;;;;31.65;3.65;;;;;;;;;;4876560;29;20100;-66
2022/07/07 07:04:09;;;;;;;14.57;2.97;;;;;;;;;;4894920;29;20143;-66
2022/07/07 07:06:35;;;;;;;13.98;2.17;;;;;;;;;;4901836;29;20054;-66
2022/07/07 07:09:01;;;;;;;16.63;2.13;;;;;;;;;;4891373;29;20119;-67
2022/07/07 07:11:27;;;;;;;14.85;2.20;;;;;;;;;;4881774;29;20056;-67
2022/07/07 07:13:54;;;;;;;10.55;1.90;;;;;;;;;;4882025;29;20131;-67
2022/07/07 07:16:20;;;;;;;8.88;1.70;;;;;;;;;;4899032;29;20485;-66
2022/07/07 07:18:46;;;;;;;10.82;1.40;;;;;;;;;;4882266;29;20052;-66
2022/07/07 07:21:13;;;;;;;15.10;1.80;;;;;;;;;;4882686;29;20131;-66
2022/07/07 07:23:39;;;;;;;7.35;1.60;;;;;;;;;;4882896;29;20128;-66
2022/07/07 07:26:06;;;;;;;5.57;1.30;;;;;;;;;;4897952;29;20049;-66
2022/07/07 07:28:33;;;;;;;4.38;0.82;;;;;;;;;;4882122;29;20049;-66
2022/07/07 07:30:59;;;;;;;10.38;1.60;;;;;;;;;;4898585;29;20056;-67
2022/07/07 07:33:25;;;;;;;6.10;1.52;;;;;;;;;;4897440;29;20044;-66
2022/07/07 07:35:51;;;;;;;13.20;2.17;;;;;;;;;;4898737;29;20047;-67
2022/07/07 07:38:17;;;;;;;18.25;2.33;;;;;;;;;;4897589;29;20127;-66
2022/07/07 07:40:43;;;;;;;17.33;2.10;;;;;;;;;;4881780;29;20056;-67
2022/07/07 07:43:09;;;;;;;12.98;2.33;;;;;;;;;;4881809;29;20044;-67
2022/07/07 07:45:35;;;;;;;28.92;3.10;;;;;;;;;;4898711;29;20389;-67
2022/07/07 07:48:02;;;;;;;21.13;2.95;;;;;;;;;;4881579;29;20045;-67
2022/07/07 07:50:29;;;;;;;17.63;3.35;;;;;;;;;;4913000;29;20045;-67
2022/07/07 07:52:56;;;;;;;21.38;2.35;;;;;;;;;;4898533;29;20041;-67
2022/07/07 07:55:22;;;;;;;21.58;2.80;;;;;;;;;;4897439;29;20121;-67
2022/07/07 07:57:48;;;;;;;17.55;2.58;;;;;;;;;;4881746;29;20060;-67
2022/07/07 08:00:17;;;;;;;18.13;2.40;;;16.60;99.90;;;;;;4881424;29;20045;-67
2022/07/07 08:02:44;;;;;;;12.10;2.13;;;;;;;;;;4897983;29;20527;-67
2022/07/07 08:05:11;;;;;;;11.43;2.50;;;;;;;;;;4881516;29;20063;-67
2022/07/07 08:07:37;;;;;;;14.18;1.98;;;;;;;;;;4912822;29;20049;-67
2022/07/07 08:10:04;;;;;;;17.55;2.25;;;;;;;;;;4897040;29;20041;-67
2022/07/07 08:12:30;;;;;;;23.55;3.05;;;;;;;;;;4881436;29;20055;-67
2022/07/07 08:14:56;;;;;;;17.58;2.47;;;;;;;;;;4881622;29;20037;-67
2022/07/07 08:17:23;;;;;;;20.73;2.83;;;;;;;;;;4896916;29;20040;-67
2022/07/07 08:19:49;;;;;;;17.80;2.30;;;;;;;;;;4896887;29;20072;-66
2022/07/07 08:22:15;;;;;;;19.30;2.78;;;;;;;;;;4881953;29;20104;-66
2022/07/07 08:24:41;;;;;;;13.63;1.95;;;;;;;;;;4898776;29;20047;-67
2022/07/07 08:27:07;;;;;;;24.00;3.97;;;;;;;;;;4884475;29;20040;-67
2022/07/07 08:29:37;;;;;;;11.88;2.30;;;;;;;;;;4899929;29;20102;-67
2022/07/07 08:32:08;;;;;;;24.65;3.10;;;17.00;99.90;;;;;;4899862;29;20048;-67
2022/07/07 08:34:34;;;;;;;17.05;3.35;;;;;;;;;;4916804;29;20513;-66
2022/07/07 08:37:01;;;;;;;12.57;2.50;;;;;;;;;;4899852;29;20473;-67
2022/07/07 08:39:27;;;;;;;14.13;2.22;;;;;;;;;;4916836;29;20131;-67
2022/07/07 08:41:53;;;;;;;12.65;2.20;;;;;;;;;;4900017;29;20091;-67
2022/07/07 08:44:19;;;;;;;9.98;2.35;;;;;;;;;;4916804;29;20044;-67
2022/07/07 08:46:45;;;;;;;11.48;1.80;;;;;;;;;;4899894;29;20044;-67
2022/07/07 08:49:11;;;;;;;7.03;2.20;;;;;;;;;;4884187;29;20401;-67
2022/07/07 08:51:43;;;;;;;9.35;1.98;;;;;;;;;;4900007;29;20044;-67
2022/07/07 08:54:10;;;;;;;10.52;1.45;;;17.10;99.90;;;;;;4916842;29;20044;-67
2022/07/07 08:56:38;;;;;;;7.50;1.35;;;;;;;;;;4884323;29;20050;-67
2022/07/07 08:59:09;;;;;;;15.48;1.88;;;17.30;99.90;;;;;;4899715;29;20123;-66
2022/07/07 09:01:36;;;;;;;11.23;1.65;;;;;;;;;;4884456;29;20100;-67
2022/07/07 09:04:02;;;;;;;11.68;2.00;;;;;;;;;;4916540;29;20408;-67
2022/07/07 09:06:28;;;;;;;15.63;2.40;;;;;;;;;;4899599;29;20493;-67
2022/07/07 09:08:55;;;;;;;11.38;1.88;;;;;;;;;;4899588;29;20096;-67
2022/07/07 09:11:28;;;;;;;13.35;2.75;;;;;;;;;;4899603;29;20040;-66
2022/07/07 09:14:09;;;;;;;15.60;2.47;;;;;;;;;;4899576;29;20040;-67
2022/07/07 09:16:36;;;;;;;10.25;2.08;;;16.70;99.90;;;;;;4899609;29;20488;-66
2022/07/07 09:19:03;;;;;;;7.57;1.73;;;;;;;;;;4916398;29;20048;-67
2022/07/07 09:21:29;;;;;;;13.15;1.90;;;;;;;;;;4899543;29;20497;-66
2022/07/07 09:24:00;;;;;;;11.25;1.67;;;;;;;;;;4899372;29;20044;-67
2022/07/07 09:26:42;;;;;;;14.52;1.58;;;;;;;;;;4899483;29;20048;-67
2022/07/07 09:29:11;;;;;;;11.50;1.85;;;17.10;99.90;;;;;;4899280;29;20488;-67
2022/07/07 09:31:57;;;;;;;14.57;1.80;;;;;;;;;;4899141;29;20048;-67
2022/07/07 09:34:26;;;;;;;12.80;2.33;;;17.60;99.90;;;;;;4899348;29;20055;-67
2022/07/07 09:39:41;;;;;;;10.57;1.65;;;17.30;99.90;;;;;;4902717;29;20060;-67
2022/07/07 09:42:26;;;;;;;19.08;2.58;;;17.10;99.90;;;;;;4912579;29;20076;-66
2022/07/07 09:44:55;;;;;;;13.10;1.88;;;16.90;99.90;;;;;;4886856;29;20045;-66
2022/07/07 09:47:22;;;;;;;16.27;2.67;;;16.70;99.90;;;;;;4875410;29;20072;-67
2022/07/07 09:50:02;;;;;;;14.93;2.60;;;;;;;;;;4892135;29;20032;-66
2022/07/07 09:52:29;;;;;;;22.25;2.75;;;;;;;;;;4874674;29;20063;-67
2022/07/07 09:54:56;;;;;;;25.75;3.20;;;;;;;;;;4875102;29;20048;-66
2022/07/07 09:57:22;;;;;;;21.90;3.42;;;;;;;;;;4872339;29;20047;-67
2022/07/07 09:59:48;;;;;;;28.42;2.85;;;;;;;;;;4875285;29;20053;-66
2022/07/07 10:02:19;;;;;;;32.28;3.95;;;16.40;99.90;;;;;;4871141;29;20104;-66
2022/07/07 10:04:51;;;;;;;21.48;3.25;;;16.40;99.90;;;;;;4872790;29;20509;-67
2022/07/07 10:07:18;;;;;;;23.52;3.53;;;16.50;99.90;;;;;;4862693;29;20044;-68
2022/07/07 10:09:45;;;;;;;21.50;3.13;;;;;;;;;;4883302;29;20049;-67
2022/07/07 10:12:11;;;;;;;27.70;3.47;;;;;;;;;;4914984;29;20101;-68
2022/07/07 10:14:42;;;;;;;17.33;2.63;;;;;;;;;;4883376;29;20124;-67
2022/07/07 10:17:08;;;;;;;21.88;2.88;;;;;;;;;;4914612;29;20093;-67
2022/07/07 10:19:34;;;;;;;19.52;2.95;;;;;;;;;;4883424;29;20465;-67
2022/07/07 10:22:03;;;;;;;20.73;3.30;;;17.00;99.90;;;;;;4883368;29;20052;-67
2022/07/07 10:24:29;;;;;;;23.05;3.95;;;;;;;;;;4883524;29;20107;-67
2022/07/07 10:26:57;;;;;;;37.33;4.70;;;;;;;;;;4914380;29;20091;-67
2022/07/07 10:29:51;;;;;;;33.75;4.40;;;16.90;99.90;;;;;;4882966;29;20501;-67
2022/07/07 10:32:33;;;;;;;34.83;4.50;;;16.70;99.90;;;;;;4882912;29;20044;-67
2022/07/07 10:35:05;;;;;;;34.83;4.95;;;;;;;;;;4914480;29;20066;-67
2022/07/07 10:37:44;;;;;;;31.27;3.95;;;16.90;99.40;;;;;;4899792;29;20060;-67
2022/07/07 10:40:29;;;;;;;16.48;2.85;;;;;;;;;;4883071;29;20044;-67
2022/07/07 10:43:26;;;;;;;17.33;2.53;;;16.90;96.90;;;;;;4883056;29;20128;-67
2022/07/07 10:45:53;;;;;;;21.80;2.85;;;;;;;;;;4898273;29;20044;-67
2022/07/07 10:48:53;;;;;;;23.23;3.03;;;17.20;97.20;;;;;;4882335;29;20081;-67
2022/07/07 10:51:23;;;;;;;23.52;3.13;;;17.50;96.00;;;;;;4853413;29;20055;-67
2022/07/07 10:54:03;;;;;;;22.48;3.08;;;;;;;;;;4882660;29;20051;-67
2022/07/07 10:56:51;;;;;;;24.77;2.92;;;17.60;96.50;;;;;;4882956;29;20061;-68
2022/07/07 10:59:18;;;;;;;23.92;3.00;;;;;;;;;;4882375;29;20048;-67
2022/07/07 11:02:02;;;;;;;26.48;3.65;;;17.60;94.80;;;;;;4882389;29;20045;-68
2022/07/07 11:04:44;;;;;;;18.83;2.72;;;;;;;;;;4899116;29;20048;-67
2022/07/07 11:07:17;;;;;;;23.58;3.28;;;;;;;;;;4882392;29;20535;-67
2022/07/07 11:10:11;;;;;;;29.05;3.38;;;17.80;95.00;;;;;;4882229;29;20193;-67
2022/07/07 11:12:48;;;;;;;25.23;3.47;;;17.60;95.90;;;;;;4882198;29;20104;-67
2022/07/07 11:15:14;;;;;;;17.48;3.13;;;18.20;99.90;;;;;;4882068;29;20044;-67
2022/07/07 11:17:40;;;;;;;20.63;3.38;;;;;;;;;;4882301;29;20044;-67
2022/07/07 11:20:14;;;;;;;20.58;2.58;;;17.50;95.80;;;;;;4866929;29;20048;-67
2022/07/07 11:22:43;;;;;;;20.83;3.20;;;;;;;;;;4881969;29;20044;-70
2022/07/07 11:25:10;;;;;;;15.02;2.80;;;17.70;95.00;;;;;;4899121;29;20366;-70
2022/07/07 11:27:37;;;;;;;26.08;2.88;;;;;;;;;;4898912;29;20044;-70
2022/07/07 11:30:04;;;;;;;14.75;2.22;;;17.50;93.60;;;;;;4897584;29;20096;-70
2022/07/07 11:32:41;;;;;;;23.10;2.70;;;17.80;93.90;;;;;;4881913;29;20119;-70
2022/07/07 11:35:08;;;;;;;18.65;2.90;;;;;;;;;;4881815;29;20051;-70
2022/07/07 11:37:37;;;;;;;24.48;3.72;;;17.80;94.90;;;;;;4882045;29;20071;-72
2022/07/07 11:40:04;;;;;;;23.65;3.15;;;;;;;;;;4882082;29;20049;-71
2022/07/07 11:42:36;;;;;;;26.25;3.55;;;;;;;;;;4881751;29;20059;-70
2022/07/07 11:45:02;;;;;;;;;;;;;;;;;;4899053;29;20489;-70
2022/07/07 11:47:35;;;;;;;22.60;3.97;;;18.30;94.90;;;;;;4881622;29;19927;-70
2022/07/07 11:50:01;;;;;;;23.00;3.80;;;;;;;;;;4911980;29;20044;-71
2022/07/07 11:52:27;;;;;;;24.95;4.00;;;;;;;;;;4881900;29;20107;-70
2022/07/07 11:54:53;;;;;;;18.55;3.40;;;;;;;;;;4881841;29;20045;-71
2022/07/07 11:57:34;;;;;;;29.27;3.85;;;17.50;95.10;;;;;;4899259;29;20041;-70
2022/07/07 12:00:12;;;;;;;26.60;4.03;;;17.70;94.30;;;;;;4898260;29;20465;-71
2022/07/07 12:02:39;;;;;;;25.50;3.92;;;;;;;;;;4912635;29;20045;-70
2022/07/07 12:05:05;;;;;;;34.08;4.88;;;;;;;;;;4866178;29;20481;-71
2022/07/07 12:07:31;;;;;;;28.95;3.67;;;;;;;;;;4881834;29;20092;-71
2022/07/07 12:09:57;;;;;;;32.10;4.60;;;;;;;;;;4881762;29;20044;-71
2022/07/07 12:12:23;;;;;;;26.15;4.22;;;;;;;;;;4881554;29;20119;-70
2022/07/07 12:14:49;;;;;;;29.67;3.47;;;;;;;;;;4898236;29;20040;-70
2022/07/07 12:17:35;;;;;;;28.48;4.55;;;;;;;;;;4881495;29;20480;-71
2022/07/07 12:20:02;;;;;;;23.95;3.63;;;;;;;;;;4881372;29;20049;-70
2022/07/07 12:22:51;;;;;;;22.88;3.03;;;;;;;;;;4881499;29;20057;-70
2022/07/07 12:25:17;;;;;;;22.38;2.88;;;;;;;;;;4858663;29;20056;-70
2022/07/07 12:27:56;;;;;;;25.60;4.70;;;17.50;93.80;;;;;;4897043;29;20044;-71
2022/07/07 12:30:24;;;;;;;28.00;4.05;;;17.20;94.50;;;;;;4880011;29;20050;-70
2022/07/07 12:32:50;;;;;;;18.60;4.07;;;;;;;;;;4865426;29;20056;-70
2022/07/07 12:35:37;;;;;;;27.33;3.28;;;17.20;94.90;;;;;;4880582;29;20049;-71
2022/07/07 12:38:05;;;;;;;32.85;3.55;;;;;;;;;;4881103;29;20054;-70
2022/07/07 12:40:33;;;;;;;28.30;3.92;;;17.40;95.50;;;;;;4881247;29;20123;-70
2022/07/07 12:43:12;;;;;;;25.17;3.70;;;17.70;95.20;;;;;;4881562;29;20430;-70
2022/07/07 12:45:45;;;;;;;16.90;2.97;;;;;;;;;;4881058;29;20071;-71
2022/07/07 12:48:16;;;;;;;22.52;3.40;;;17.60;94.40;;;;;;4880747;29;20052;-71
2022/07/07 12:50:43;;;;;;;22.58;2.90;;;;;;;;;;4880109;29;20560;-70
2022/07/07 12:53:09;;;;;;;17.20;2.75;;;;;;;;;;4904241;29;20071;-70
2022/07/07 12:55:45;;;;;;;25.83;2.83;;;17.80;92.90;;;;;;4897351;29;20040;-70
2022/07/07 12:58:13;;;;;;;19.85;2.88;;;18.60;94.20;;;;;;4897711;29;20053;-70
2022/07/07 13:00:40;;;;;;;18.98;3.28;;;17.90;93.70;;;;;;4900223;29;20135;-71
2022/07/07 13:03:07;;;;;;;16.75;2.75;;;;;;;;;;4879702;29;20063;-71
2022/07/07 13:05:33;;;;;;;21.27;2.88;;;;;;;;;;4875680;29;20482;-71
2022/07/07 13:07:59;;;;;;;20.23;2.47;;;;;;;;;;4879007;29;20126;-70
2022/07/07 13:10:26;;;;;;;23.08;3.10;;;;;;;;;;4880791;29;20047;-70
2022/07/07 13:12:54;;;;;;;23.33;3.15;;;17.50;95.00;;;;;;4884649;29;20099;-70
2022/07/07 13:15:21;;;;;;;25.25;3.83;;;;;;;;;;4884111;29;20055;-70
2022/07/07 13:17:47;;;;;;;30.67;3.70;;;;;;;;;;4884500;29;20076;-70
2022/07/07 13:20:13;;;;;;;20.38;2.90;;;;;;;;;;4884414;29;20147;-71
2022/07/07 13:22:40;;;;;;;22.30;3.33;;;;;;;;;;4884074;29;20091;-70
2022/07/07 13:25:07;;;;;;;21.83;2.65;;;17.50;95.00;;;;;;4900102;29;20072;-71
2022/07/07 13:27:34;;;;;;;14.75;2.67;;;;;;;;;;4874280;29;20078;-71
2022/07/07 13:30:00;;;;;;;20.58;3.15;;;;;;;;;;4865777;29;20040;-70
2022/07/07 13:32:26;;;;;;;15.07;2.40;;;;;;;;;;4884591;29;20048;-71
2022/07/07 13:34:53;;;;;;;12.13;2.45;;;;;;;;;;4900198;29;20503;-71
2022/07/07 13:37:19;;;;;;;12.52;2.50;;;;;;;;;;4899848;29;20040;-71
2022/07/07 13:39:45;;;;;;;13.63;2.75;;;;;;;;;;4883689;29;20052;-71
2022/07/07 13:42:11;;;;;;;8.85;1.98;;;;;;;;;;4898930;29;20051;-68
2022/07/07 13:44:38;;;;;;;18.10;3.20;;;;;;;;;;4911043;29;20438;-70
2022/07/07 13:47:04;;;;;;;15.88;2.50;;;;;;;;;;4883673;29;20056;-71
2022/07/07 13:49:30;;;;;;;16.95;2.60;;;;;;;;;;4883641;29;20045;-69
2022/07/07 13:51:59;;;;;;;21.05;2.60;;;;;;;;;;4883788;29;20378;-70
2022/07/07 13:54:27;;;;;;;23.23;3.10;;;17.60;93.80;;;;;;4882936;29;20048;-71
2022/07/07 13:56:53;;;;;;;17.83;2.75;;;;;;;;;;4883393;29;20515;-70
2022/07/07 13:59:19;;;;;;;17.63;2.80;;;;;;;;;;4883504;29;20087;-70
2022/07/07 14:01:45;;;;;;;14.25;2.55;;;;;;;;;;4883280;29;20523;-70
2022/07/07 14:04:11;;;;;;;9.80;2.30;;;;;;;;;;4883571;29;20143;-70
2022/07/07 14:06:37;;;;;;;23.77;2.92;;;;;;;;;;4883565;29;20076;-66
2022/07/07 14:09:03;;;;;;;27.42;3.28;;;;;;;;;;4899022;29;20052;-66
2022/07/07 14:11:30;;;;;;;24.95;3.35;;;;;;;;;;4882850;29;20108;-66
2022/07/07 14:13:56;;;;;;;20.10;3.20;;;;;;;;;;4899930;29;20040;-66